Terminal Aerodrome Forecast
Issued by NWS Charleston, WV

Current Version | Previous Version | Text Only | Print | Product List | Glossary Off
Versions: 1 2 3 4 5 6 7 8 9 10 11 12 13 14 15 16 17 18 19 20 21 22 23 24 25 26

000
FTUS41 KRLX 261400 AAA
TAFCRW
TAF AMD
KCRW 261408Z 2614/2712 32008KT 1 1/2SM -SHRA OVC004
      TEMPO 2614/2615 1/2SM FG OVC001
     FM261500 31005KT 2SM -RAPLSN BR OVC008
     FM261700 30007KT 2SM -SN BR OVC010
     FM261900 29008KT 1SM -SN OVC005
     FM262200 30008KT 3SM -SN OVC015=

USA.gov is the U.S. government's official web portal to all federal, state and local government web resources and services.